sensor_id;sensor_type;location;lat;lon;timestamp;temperature;humidity
10572;DHT22;5334;48.928;12.704;2023-04-01T00:01:04;9.00;99.90
10572;DHT22;5334;48.928;12.704;2023-04-01T00:03:31;9.00;99.90
10572;DHT22;5334;48.928;12.704;2023-04-01T00:05:59;9.00;99.90
10572;DHT22;5334;48.928;12.704;2023-04-01T00:08:26;9.00;99.90
10572;DHT22;5334;48.928;12.704;2023-04-01T00:10:53;9.00;99.90
10572;DHT22;5334;48.928;12.704;2023-04-01T00:13:19;9.00;99.90
10572;DHT22;5334;48.928;12.704;2023-04-01T00:15:46;9.00;99.90
10572;DHT22;5334;48.928;12.704;2023-04-01T00:18:12;9.00;99.90
10572;DHT22;5334;48.928;12.704;2023-04-01T00:20:39;9.00;99.90
10572;DHT22;5334;48.928;12.704;2023-04-01T00:23:08;8.90;99.90
10572;DHT22;5334;48.928;12.704;2023-04-01T00:25:33;8.90;99.90
10572;DHT22;5334;48.928;12.704;2023-04-01T00:27:59;8.80;99.90
10572;DHT22;5334;48.928;12.704;2023-04-01T00:30:25;8.80;99.90
10572;DHT22;5334;48.928;12.704;2023-04-01T00:32:54;8.80;99.90
10572;DHT22;5334;48.928;12.704;2023-04-01T00:35:20;8.80;99.90
10572;DHT22;5334;48.928;12.704;2023-04-01T00:37:45;8.80;99.90
10572;DHT22;5334;48.928;12.704;2023-04-01T00:40:43;8.80;99.90
10572;DHT22;5334;48.928;12.704;2023-04-01T00:43:16;8.80;99.90
10572;DHT22;5334;48.928;12.704;2023-04-01T00:45:45;8.80;99.90
10572;DHT22;5334;48.928;12.704;2023-04-01T00:48:18;8.80;99.90
10572;DHT22;5334;48.928;12.704;2023-04-01T00:50:52;8.80;99.90
10572;DHT22;5334;48.928;12.704;2023-04-01T00:53:19;8.80;99.90
10572;DHT22;5334;48.928;12.704;2023-04-01T00:58:29;8.70;99.90
10572;DHT22;5334;48.928;12.704;2023-04-01T01:00:57;8.70;99.90
10572;DHT22;5334;48.928;12.704;2023-04-01T01:03:24;8.80;99.90
10572;DHT22;5334;48.928;12.704;2023-04-01T01:06:16;8.80;99.90
10572;DHT22;5334;48.928;12.704;2023-04-01T01:11:54;8.70;99.90
10572;DHT22;5334;48.928;12.704;2023-04-01T01:15:29;8.70;99.90
10572;DHT22;5334;48.928;12.704;2023-04-01T01:31:43;8.70;99.90
10572;DHT22;5334;48.928;12.704;2023-04-01T01:36:49;8.70;99.90
10572;DHT22;5334;48.928;12.704;2023-04-01T01:39:18;8.70;99.90
10572;DHT22;5334;48.928;12.704;2023-04-01T01:41:46;8.70;99.90
10572;DHT22;5334;48.928;12.704;2023-04-01T01:44:16;8.70;99.90
10572;DHT22;5334;48.928;12.704;2023-04-01T01:46:42;8.70;99.90
10572;DHT22;5334;48.928;12.704;2023-04-01T01:49:11;8.70;99.90
10572;DHT22;5334;48.928;12.704;2023-04-01T01:51:38;8.70;99.90
10572;DHT22;5334;48.928;12.704;2023-04-01T01:54:05;8.70;99.90
10572;DHT22;5334;48.928;12.704;2023-04-01T01:56:31;8.70;99.90
10572;DHT22;5334;48.928;12.704;2023-04-01T01:59:04;8.70;99.90
10572;DHT22;5334;48.928;12.704;2023-04-01T02:01:33;8.70;99.90
10572;DHT22;5334;48.928;12.704;2023-04-01T02:04:00;8.70;99.90
10572;DHT22;5334;48.928;12.704;2023-04-01T02:06:29;8.70;99.90
10572;DHT22;5334;48.928;12.704;2023-04-01T02:08:56;8.60;99.90
10572;DHT22;5334;48.928;12.704;2023-04-01T02:11:32;8.70;99.90
10572;DHT22;5334;48.928;12.704;2023-04-01T02:14:09;8.70;99.90
10572;DHT22;5334;48.928;12.704;2023-04-01T02:17:43;8.70;99.90
10572;DHT22;5334;48.928;12.704;2023-04-01T02:19:51;8.70;99.90
10572;DHT22;5334;48.928;12.704;2023-04-01T02:22:21;8.70;99.90
10572;DHT22;5334;48.928;12.704;2023-04-01T02:24:49;8.70;99.90
10572;DHT22;5334;48.928;12.704;2023-04-01T02:27:16;8.70;99.90
10572;DHT22;5334;48.928;12.704;2023-04-01T02:29:41;8.70;99.90
10572;DHT22;5334;48.928;12.704;2023-04-01T02:32:08;8.70;99.90
10572;DHT22;5334;48.928;12.704;2023-04-01T02:34:35;8.70;99.90
10572;DHT22;5334;48.928;12.704;2023-04-01T02:37:01;8.70;99.90
10572;DHT22;5334;48.928;12.704;2023-04-01T02:39:27;8.70;99.90
10572;DHT22;5334;48.928;12.704;2023-04-01T02:41:53;8.70;99.90
10572;DHT22;5334;48.928;12.704;2023-04-01T02:44:18;8.70;99.90
10572;DHT22;5334;48.928;12.704;2023-04-01T02:46:44;8.70;99.90
10572;DHT22;5334;48.928;12.704;2023-04-01T02:49:10;8.70;99.90
10572;DHT22;5334;48.928;12.704;2023-04-01T02:51:36;8.60;99.90
10572;DHT22;5334;48.928;12.704;2023-04-01T02:54:02;8.60;99.90
10572;DHT22;5334;48.928;12.704;2023-04-01T02:56:28;8.60;99.90
10572;DHT22;5334;48.928;12.704;2023-04-01T02:58:54;8.60;99.90
10572;DHT22;5334;48.928;12.704;2023-04-01T03:01:20;8.60;99.90
10572;DHT22;5334;48.928;12.704;2023-04-01T03:03:46;8.60;99.90
10572;DHT22;5334;48.928;12.704;2023-04-01T03:06:13;8.60;99.90
10572;DHT22;5334;48.928;12.704;2023-04-01T03:08:39;8.60;99.90
10572;DHT22;5334;48.928;12.704;2023-04-01T03:11:05;8.60;99.90
10572;DHT22;5334;48.928;12.704;2023-04-01T03:13:32;8.60;99.90
10572;DHT22;5334;48.928;12.704;2023-04-01T03:15:57;8.60;99.90
10572;DHT22;5334;48.928;12.704;2023-04-01T03:18:23;8.60;99.90
10572;DHT22;5334;48.928;12.704;2023-04-01T03:20:49;8.60;99.90
10572;DHT22;5334;48.928;12.704;2023-04-01T03:23:15;8.60;99.90
10572;DHT22;5334;48.928;12.704;2023-04-01T03:25:42;8.60;99.90
10572;DHT22;5334;48.928;12.704;2023-04-01T03:28:08;8.60;99.90
10572;DHT22;5334;48.928;12.704;2023-04-01T03:30:34;8.60;99.90
10572;DHT22;5334;48.928;12.704;2023-04-01T03:33:00;8.60;99.90
10572;DHT22;5334;48.928;12.704;2023-04-01T03:35:26;8.60;99.90
10572;DHT22;5334;48.928;12.704;2023-04-01T03:37:53;8.60;99.90
10572;DHT22;5334;48.928;12.704;2023-04-01T03:40:19;8.60;99.90
10572;DHT22;5334;48.928;12.704;2023-04-01T03:42:45;8.50;99.90
10572;DHT22;5334;48.928;12.704;2023-04-01T03:45:11;8.50;99.90
10572;DHT22;5334;48.928;12.704;2023-04-01T03:47:38;8.50;99.90
10572;DHT22;5334;48.928;12.704;2023-04-01T03:50:07;8.50;99.90
10572;DHT22;5334;48.928;12.704;2023-04-01T03:52:34;8.50;99.90
10572;DHT22;5334;48.928;12.704;2023-04-01T03:55:00;8.50;99.90
10572;DHT22;5334;48.928;12.704;2023-04-01T03:57:26;8.50;99.90
10572;DHT22;5334;48.928;12.704;2023-04-01T03:59:52;8.50;99.90
10572;DHT22;5334;48.928;12.704;2023-04-01T04:02:18;8.50;99.90
10572;DHT22;5334;48.928;12.704;2023-04-01T04:04:43;8.50;99.90
10572;DHT22;5334;48.928;12.704;2023-04-01T04:07:09;8.40;99.90
10572;DHT22;5334;48.928;12.704;2023-04-01T04:09:34;8.40;99.90
10572;DHT22;5334;48.928;12.704;2023-04-01T04:12:00;8.40;99.90
10572;DHT22;5334;48.928;12.704;2023-04-01T04:14:26;8.40;99.90
10572;DHT22;5334;48.928;12.704;2023-04-01T04:16:52;8.40;99.90
10572;DHT22;5334;48.928;12.704;2023-04-01T04:19:17;8.40;99.90
10572;DHT22;5334;48.928;12.704;2023-04-01T04:21:43;8.30;99.90
10572;DHT22;5334;48.928;12.704;2023-04-01T04:24:09;8.30;99.90
10572;DHT22;5334;48.928;12.704;2023-04-01T04:26:35;8.30;99.90
10572;DHT22;5334;48.928;12.704;2023-04-01T04:29:01;8.30;99.90
10572;DHT22;5334;48.928;12.704;2023-04-01T04:31:27;8.30;99.90
10572;DHT22;5334;48.928;12.704;2023-04-01T04:33:53;8.30;99.90
10572;DHT22;5334;48.928;12.704;2023-04-01T04:36:20;8.30;99.90
10572;DHT22;5334;48.928;12.704;2023-04-01T04:38:46;8.30;99.90
10572;DHT22;5334;48.928;12.704;2023-04-01T04:41:13;8.30;99.90
10572;DHT22;5334;48.928;12.704;2023-04-01T04:43:41;8.30;99.90
10572;DHT22;5334;48.928;12.704;2023-04-01T04:46:10;8.30;99.90
10572;DHT22;5334;48.928;12.704;2023-04-01T04:48:36;8.30;99.90
10572;DHT22;5334;48.928;12.704;2023-04-01T04:51:02;8.30;99.90
10572;DHT22;5334;48.928;12.704;2023-04-01T04:53:29;8.30;99.90
10572;DHT22;5334;48.928;12.704;2023-04-01T04:55:54;8.30;99.90
10572;DHT22;5334;48.928;12.704;2023-04-01T04:58:20;8.30;99.90
10572;DHT22;5334;48.928;12.704;2023-04-01T05:00:46;8.30;99.90
10572;DHT22;5334;48.928;12.704;2023-04-01T05:03:13;8.30;99.90
10572;DHT22;5334;48.928;12.704;2023-04-01T05:05:39;8.30;99.90
10572;DHT22;5334;48.928;12.704;2023-04-01T05:08:05;8.30;99.90
10572;DHT22;5334;48.928;12.704;2023-04-01T05:10:31;8.30;99.90
10572;DHT22;5334;48.928;12.704;2023-04-01T05:12:57;8.30;99.90
10572;DHT22;5334;48.928;12.704;2023-04-01T05:15:23;8.30;99.90
10572;DHT22;5334;48.928;12.704;2023-04-01T05:17:50;8.30;99.90
10572;DHT22;5334;48.928;12.704;2023-04-01T05:20:16;8.30;99.90
10572;DHT22;5334;48.928;12.704;2023-04-01T05:22:42;8.20;99.90
10572;DHT22;5334;48.928;12.704;2023-04-01T05:25:08;8.10;99.90
10572;DHT22;5334;48.928;12.704;2023-04-01T05:27:34;8.10;99.90
10572;DHT22;5334;48.928;12.704;2023-04-01T05:30:00;8.10;99.90
10572;DHT22;5334;48.928;12.704;2023-04-01T05:32:25;8.10;99.90
10572;DHT22;5334;48.928;12.704;2023-04-01T05:34:52;8.10;99.90
10572;DHT22;5334;48.928;12.704;2023-04-01T05:37:18;8.10;99.90
10572;DHT22;5334;48.928;12.704;2023-04-01T05:39:43;8.10;99.90
10572;DHT22;5334;48.928;12.704;2023-04-01T05:42:09;8.10;99.90
10572;DHT22;5334;48.928;12.704;2023-04-01T05:44:35;8.10;99.90
10572;DHT22;5334;48.928;12.704;2023-04-01T05:47:02;8.20;99.90
10572;DHT22;5334;48.928;12.704;2023-04-01T05:49:27;8.20;99.90
10572;DHT22;5334;48.928;12.704;2023-04-01T05:51:53;8.20;99.90
10572;DHT22;5334;48.928;12.704;2023-04-01T05:54:19;8.20;99.90
10572;DHT22;5334;48.928;12.704;2023-04-01T05:56:45;8.20;99.90
10572;DHT22;5334;48.928;12.704;2023-04-01T05:59:11;8.30;99.90
10572;DHT22;5334;48.928;12.704;2023-04-01T06:01:37;8.30;99.90
10572;DHT22;5334;48.928;12.704;2023-04-01T06:04:04;8.30;99.90
10572;DHT22;5334;48.928;12.704;2023-04-01T06:06:31;8.30;99.90
10572;DHT22;5334;48.928;12.704;2023-04-01T06:09:05;8.30;99.90
10572;DHT22;5334;48.928;12.704;2023-04-01T06:11:41;8.30;99.90
10572;DHT22;5334;48.928;12.704;2023-04-01T06:17:24;8.40;99.90
10572;DHT22;5334;48.928;12.704;2023-04-01T06:34:21;8.50;99.90
10572;DHT22;5334;48.928;12.704;2023-04-01T06:50:12;8.60;99.90
10572;DHT22;5334;48.928;12.704;2023-04-01T06:53:09;8.70;99.90
10572;DHT22;5334;48.928;12.704;2023-04-01T06:55:47;8.70;99.90
10572;DHT22;5334;48.928;12.704;2023-04-01T06:58:36;8.70;99.90
10572;DHT22;5334;48.928;12.704;2023-04-01T07:01:09;8.70;99.90
10572;DHT22;5334;48.928;12.704;2023-04-01T07:03:44;8.80;99.90
10572;DHT22;5334;48.928;12.704;2023-04-01T07:06:36;8.90;99.90
10572;DHT22;5334;48.928;12.704;2023-04-01T07:09:11;8.90;99.90
10572;DHT22;5334;48.928;12.704;2023-04-01T07:14:13;9.00;99.90
10572;DHT22;5334;48.928;12.704;2023-04-01T07:16:48;9.00;99.90
10572;DHT22;5334;48.928;12.704;2023-04-01T07:19:22;9.00;99.90
10572;DHT22;5334;48.928;12.704;2023-04-01T07:21:54;9.00;99.90
10572;DHT22;5334;48.928;12.704;2023-04-01T07:24:34;9.00;99.90
10572;DHT22;5334;48.928;12.704;2023-04-01T07:27:01;8.90;99.90
10572;DHT22;5334;48.928;12.704;2023-04-01T07:29:27;8.90;99.90
10572;DHT22;5334;48.928;12.704;2023-04-01T07:37:14;8.90;99.90
10572;DHT22;5334;48.928;12.704;2023-04-01T07:39:55;9.00;99.90
10572;DHT22;5334;48.928;12.704;2023-04-01T07:42:41;9.10;99.90
10572;DHT22;5334;48.928;12.704;2023-04-01T07:50:41;9.40;99.90
10572;DHT22;5334;48.928;12.704;2023-04-01T07:53:36;9.40;99.90
10572;DHT22;5334;48.928;12.704;2023-04-01T07:59:10;9.50;99.90
10572;DHT22;5334;48.928;12.704;2023-04-01T08:07:18;9.60;99.90
10572;DHT22;5334;48.928;12.704;2023-04-01T08:10:00;9.70;99.90
10572;DHT22;5334;48.928;12.704;2023-04-01T08:15:26;9.70;99.90
10572;DHT22;5334;48.928;12.704;2023-04-01T08:23:24;10.00;99.90
10572;DHT22;5334;48.928;12.704;2023-04-01T08:26:04;10.00;99.90
10572;DHT22;5334;48.928;12.704;2023-04-01T08:29:07;10.10;99.90
10572;DHT22;5334;48.928;12.704;2023-04-01T08:31:40;10.20;99.90
10572;DHT22;5334;48.928;12.704;2023-04-01T08:34:24;10.30;99.90
10572;DHT22;5334;48.928;12.704;2023-04-01T08:37:00;10.40;99.90
10572;DHT22;5334;48.928;12.704;2023-04-01T08:39:49;10.40;99.90
10572;DHT22;5334;48.928;12.704;2023-04-01T08:50:24;10.40;99.90
10572;DHT22;5334;48.928;12.704;2023-04-01T08:56:14;10.30;99.90
10572;DHT22;5334;48.928;12.704;2023-04-01T09:18:34;11.00;99.90
10572;DHT22;5334;48.928;12.704;2023-04-01T09:27:27;11.00;99.90
10572;DHT22;5334;48.928;12.704;2023-04-01T09:54:11;10.60;99.90
10572;DHT22;5334;48.928;12.704;2023-04-01T09:57:02;10.60;99.90
10572;DHT22;5334;48.928;12.704;2023-04-01T10:19:43;10.70;99.90
10572;DHT22;5334;48.928;12.704;2023-04-01T10:25:05;10.80;99.90
10572;DHT22;5334;48.928;12.704;2023-04-01T10:33:23;11.00;99.90
10572;DHT22;5334;48.928;12.704;2023-04-01T10:38:58;11.20;99.90
10572;DHT22;5334;48.928;12.704;2023-04-01T10:42:20;11.30;99.90
10572;DHT22;5334;48.928;12.704;2023-04-01T10:48:04;11.30;99.90
10572;DHT22;5334;48.928;12.704;2023-04-01T10:56:08;11.30;99.90
10572;DHT22;5334;48.928;12.704;2023-04-01T10:59:04;11.20;99.90
10572;DHT22;5334;48.928;12.704;2023-04-01T11:26:43;11.30;99.90
10572;DHT22;5334;48.928;12.704;2023-04-01T11:31:53;11.40;99.90
10572;DHT22;5334;48.928;12.704;2023-04-01T11:42:49;11.50;99.90
10572;DHT22;5334;48.928;12.704;2023-04-01T11:45:30;11.50;99.90
10572;DHT22;5334;48.928;12.704;2023-04-01T12:13:05;11.60;99.90
10572;DHT22;5334;48.928;12.704;2023-04-01T12:15:39;11.70;99.90
10572;DHT22;5334;48.928;12.704;2023-04-01T12:20:57;11.70;99.90
10572;DHT22;5334;48.928;12.704;2023-04-01T12:23:53;11.60;99.90
10572;DHT22;5334;48.928;12.704;2023-04-01T12:29:04;11.50;99.90
10572;DHT22;5334;48.928;12.704;2023-04-01T12:34:43;11.30;99.90
10572;DHT22;5334;48.928;12.704;2023-04-01T12:37:35;11.10;99.90
10572;DHT22;5334;48.928;12.704;2023-04-01T12:46:01;10.80;99.90
10572;DHT22;5334;48.928;12.704;2023-04-01T12:52:03;10.50;99.90
10572;DHT22;5334;48.928;12.704;2023-04-01T12:54:55;10.20;99.90
10572;DHT22;5334;48.928;12.704;2023-04-01T13:03:10;10.10;99.90
10572;DHT22;5334;48.928;12.704;2023-04-01T13:08:40;10.30;99.90
10572;DHT22;5334;48.928;12.704;2023-04-01T13:16:42;10.00;99.90
10572;DHT22;5334;48.928;12.704;2023-04-01T13:19:20;10.00;99.90
10572;DHT22;5334;48.928;12.704;2023-04-01T13:35:53;9.60;99.90
10572;DHT22;5334;48.928;12.704;2023-04-01T13:38:43;9.50;99.90
10572;DHT22;5334;48.928;12.704;2023-04-01T13:41:24;9.50;99.90
10572;DHT22;5334;48.928;12.704;2023-04-01T13:44:11;9.50;99.90
10572;DHT22;5334;48.928;12.704;2023-04-01T13:46:52;9.50;99.90
10572;DHT22;5334;48.928;12.704;2023-04-01T13:49:41;9.50;99.90
10572;DHT22;5334;48.928;12.704;2023-04-01T13:52:40;9.50;99.90
10572;DHT22;5334;48.928;12.704;2023-04-01T13:58:04;9.40;99.90
10572;DHT22;5334;48.928;12.704;2023-04-01T14:00:46;9.40;99.90
10572;DHT22;5334;48.928;12.704;2023-04-01T14:17:41;9.10;99.90
10572;DHT22;5334;48.928;12.704;2023-04-01T14:23:20;9.20;99.90
10572;DHT22;5334;48.928;12.704;2023-04-01T14:43:01;9.00;99.90
10572;DHT22;5334;48.928;12.704;2023-04-01T14:51:22;9.00;99.90
10572;DHT22;5334;48.928;12.704;2023-04-01T14:56:45;8.90;99.90
10572;DHT22;5334;48.928;12.704;2023-04-01T15:21:02;9.20;99.90
10572;DHT22;5334;48.928;12.704;2023-04-01T15:31:40;9.10;99.90
10572;DHT22;5334;48.928;12.704;2023-04-01T15:40:29;9.10;99.90
10572;DHT22;5334;48.928;12.704;2023-04-01T15:51:23;9.00;99.90
10572;DHT22;5334;48.928;12.704;2023-04-01T15:54:05;9.10;99.90
10572;DHT22;5334;48.928;12.704;2023-04-01T16:10:17;8.90;99.90
10572;DHT22;5334;48.928;12.704;2023-04-01T16:12:50;8.90;99.90
10572;DHT22;5334;48.928;12.704;2023-04-01T16:15:53;8.90;99.90
10572;DHT22;5334;48.928;12.704;2023-04-01T16:21:43;9.00;99.90
10572;DHT22;5334;48.928;12.704;2023-04-01T16:27:02;9.00;99.90
10572;DHT22;5334;48.928;12.704;2023-04-01T16:35:00;9.00;99.90
10572;DHT22;5334;48.928;12.704;2023-04-01T16:37:43;9.00;99.90
10572;DHT22;5334;48.928;12.704;2023-04-01T16:40:34;9.00;99.90
10572;DHT22;5334;48.928;12.704;2023-04-01T16:48:23;9.10;99.90
10572;DHT22;5334;48.928;12.704;2023-04-01T16:50:59;9.10;99.90
10572;DHT22;5334;48.928;12.704;2023-04-01T16:53:31;9.10;99.90
10572;DHT22;5334;48.928;12.704;2023-04-01T16:58:33;9.10;99.90
10572;DHT22;5334;48.928;12.704;2023-04-01T17:01:16;9.10;99.90
10572;DHT22;5334;48.928;12.704;2023-04-01T17:03:47;9.10;99.90
10572;DHT22;5334;48.928;12.704;2023-04-01T17:15:18;9.10;99.90
10572;DHT22;5334;48.928;12.704;2023-04-01T17:20:34;9.10;99.90
10572;DHT22;5334;48.928;12.704;2023-04-01T17:26:23;9.00;99.90
10572;DHT22;5334;48.928;12.704;2023-04-01T17:28:57;9.00;99.90
10572;DHT22;5334;48.928;12.704;2023-04-01T17:42:59;9.10;99.90
10572;DHT22;5334;48.928;12.704;2023-04-01T17:45:37;9.10;99.90
10572;DHT22;5334;48.928;12.704;2023-04-01T17:54:40;9.10;99.90
10572;DHT22;5334;48.928;12.704;2023-04-01T18:00:14;9.00;99.90
10572;DHT22;5334;48.928;12.704;2023-04-01T18:11:10;8.90;99.90
10572;DHT22;5334;48.928;12.704;2023-04-01T18:13:59;8.80;99.90
10572;DHT22;5334;48.928;12.704;2023-04-01T18:21:58;8.80;99.90
10572;DHT22;5334;48.928;12.704;2023-04-01T18:24:33;8.80;99.90
10572;DHT22;5334;48.928;12.704;2023-04-01T18:27:22;8.80;99.90
10572;DHT22;5334;48.928;12.704;2023-04-01T18:30:00;8.80;99.90
10572;DHT22;5334;48.928;12.704;2023-04-01T18:32:54;8.80;99.90
10572;DHT22;5334;48.928;12.704;2023-04-01T18:38:13;8.70;99.90
10572;DHT22;5334;48.928;12.704;2023-04-01T18:46:29;8.70;99.90
10572;DHT22;5334;48.928;12.704;2023-04-01T18:49:29;8.70;99.90
10572;DHT22;5334;48.928;12.704;2023-04-01T18:57:57;8.70;99.90
10572;DHT22;5334;48.928;12.704;2023-04-01T19:00:48;8.70;99.90
10572;DHT22;5334;48.928;12.704;2023-04-01T19:03:52;8.80;99.90
10572;DHT22;5334;48.928;12.704;2023-04-01T19:06:33;8.80;99.90
10572;DHT22;5334;48.928;12.704;2023-04-01T19:09:43;8.80;99.90
10572;DHT22;5334;48.928;12.704;2023-04-01T19:12:37;8.80;99.90
10572;DHT22;5334;48.928;12.704;2023-04-01T19:15:11;8.80;99.90
10572;DHT22;5334;48.928;12.704;2023-04-01T19:18:08;8.90;99.90
10572;DHT22;5334;48.928;12.704;2023-04-01T19:38:25;9.10;99.90
10572;DHT22;5334;48.928;12.704;2023-04-01T19:44:02;9.10;99.90
10572;DHT22;5334;48.928;12.704;2023-04-01T19:47:02;9.10;99.90
10572;DHT22;5334;48.928;12.704;2023-04-01T19:49:49;9.10;99.90
10572;DHT22;5334;48.928;12.704;2023-04-01T19:52:27;9.10;99.90
10572;DHT22;5334;48.928;12.704;2023-04-01T20:01:04;9.10;99.90
10572;DHT22;5334;48.928;12.704;2023-04-01T20:04:08;9.10;99.90
10572;DHT22;5334;48.928;12.704;2023-04-01T20:12:17;9.00;99.90
10572;DHT22;5334;48.928;12.704;2023-04-01T20:14:51;9.00;99.90
10572;DHT22;5334;48.928;12.704;2023-04-01T20:20:23;9.00;99.90
10572;DHT22;5334;48.928;12.704;2023-04-01T20:23:16;9.00;99.90
10572;DHT22;5334;48.928;12.704;2023-04-01T20:25:49;9.00;99.90
10572;DHT22;5334;48.928;12.704;2023-04-01T20:51:22;9.00;99.90
10572;DHT22;5334;48.928;12.704;2023-04-01T20:53:57;9.00;99.90
10572;DHT22;5334;48.928;12.704;2023-04-01T21:02:35;9.00;99.90
10572;DHT22;5334;48.928;12.704;2023-04-01T21:05:45;9.00;99.90
10572;DHT22;5334;48.928;12.704;2023-04-01T21:11:22;9.00;99.90
10572;DHT22;5334;48.928;12.704;2023-04-01T21:29:54;9.00;99.90
10572;DHT22;5334;48.928;12.704;2023-04-01T21:41:41;9.00;99.90
10572;DHT22;5334;48.928;12.704;2023-04-01T21:44:39;8.90;99.90
10572;DHT22;5334;48.928;12.704;2023-04-01T21:56:17;8.80;99.90
10572;DHT22;5334;48.928;12.704;2023-04-01T22:12:31;8.90;99.90
10572;DHT22;5334;48.928;12.704;2023-04-01T22:18:09;9.00;99.90
10572;DHT22;5334;48.928;12.704;2023-04-01T22:29:40;9.00;99.90
10572;DHT22;5334;48.928;12.704;2023-04-01T22:32:25;9.00;99.90
10572;DHT22;5334;48.928;12.704;2023-04-01T22:35:07;9.00;99.90
10572;DHT22;5334;48.928;12.704;2023-04-01T22:42:59;8.90;99.90
10572;DHT22;5334;48.928;12.704;2023-04-01T22:48:25;8.90;99.90
10572;DHT22;5334;48.928;12.704;2023-04-01T22:56:15;8.80;99.90
10572;DHT22;5334;48.928;12.704;2023-04-01T23:01:46;8.90;99.90
10572;DHT22;5334;48.928;12.704;2023-04-01T23:04:16;8.90;99.90
10572;DHT22;5334;48.928;12.704;2023-04-01T23:06:48;8.80;99.90
10572;DHT22;5334;48.928;12.704;2023-04-01T23:09:27;8.80;99.90
10572;DHT22;5334;48.928;12.704;2023-04-01T23:12:09;8.80;99.90
10572;DHT22;5334;48.928;12.704;2023-04-01T23:14:41;8.80;99.90
10572;DHT22;5334;48.928;12.704;2023-04-01T23:17:47;8.80;99.90
10572;DHT22;5334;48.928;12.704;2023-04-01T23:20:58;8.80;99.90
10572;DHT22;5334;48.928;12.704;2023-04-01T23:23:22;8.80;99.90
10572;DHT22;5334;48.928;12.704;2023-04-01T23:30:54;8.80;99.90
10572;DHT22;5334;48.928;12.704;2023-04-01T23:33:23;8.80;99.90
10572;DHT22;5334;48.928;12.704;2023-04-01T23:35:58;8.80;99.90
10572;DHT22;5334;48.928;12.704;2023-04-01T23:38:39;8.80;99.90
10572;DHT22;5334;48.928;12.704;2023-04-01T23:41:08;8.80;99.90
10572;DHT22;5334;48.928;12.704;2023-04-01T23:43:43;8.80;99.90
10572;DHT22;5334;48.928;12.704;2023-04-01T23:46:11;8.80;99.90
10572;DHT22;5334;48.928;12.704;2023-04-01T23:48:44;8.80;99.90
10572;DHT22;5334;48.928;12.704;2023-04-01T23:51:21;8.80;99.90
10572;DHT22;5334;48.928;12.704;2023-04-01T23:53:57;8.80;99.90
10572;DHT22;5334;48.928;12.704;2023-04-01T23:56:38;8.80;99.90
10572;DHT22;5334;48.928;12.704;2023-04-01T23:59:04;8.80;99.90
